Latest Weather Observations for Salmon Gums RS

IDW60801

Issued at 9:33 pm WST Friday 28 April 2017 (issued every 30 minutes, with the page automatically refreshed every 10 minutes)

About weather observations | Map of weather stations | Latest weather observations for WA | Other Formats
Station Details ID: 012071 Name: SALMON GUMS RES.STN. Lat: -32.99 Lon: 121.62 Height: 249.0 m
Data from the previous 72 hours. | See also: Recent months at Salmon Gums RS
Date/Time
WST
Temp
°C
App
Temp
°C
Dew
Point
°C
Rel
Hum
%
Delta-T
°C
Wind Press
QNH
hPa
Press
MSL
hPa
Rain since
9am
mm
Dir  Spd
km/h
Gust
km/h
Spd
kts
Gust
kts
28/09:30pm 7.6 6.1 3.1 73 1.9 CALM 0 0 0 0 - - 0.0
28/09:00pm 9.2 7.1 3.8 69 2.4 E 4 6 2 3 - - 0.0
28/08:30pm 10.9 9.3 4.6 65 2.9 E 2 4 1 2 - - 0.0
28/08:00pm 12.6 10.4 5.5 62 3.4 E 6 6 3 3 - - 0.0
28/07:30pm 13.8 11.7 5.9 59 3.8 ESE 6 7 3 4 - - 0.0
28/07:00pm 14.0 11.9 5.6 57 4.0 ESE 6 7 3 4 - - 0.0
28/06:30pm 15.2 13.0 6.0 54 4.5 E 7 9 4 5 - - 0.0
28/06:00pm 16.1 13.9 6.0 51 5.0 E 7 9 4 5 - - 0.0
28/05:30pm 17.5 14.9 6.1 47 5.7 E 9 11 5 6 - - 0.0
28/05:00pm 19.0 16.3 5.8 42 6.6 E 9 13 5 7 - - 0.0
28/04:30pm 20.1 17.0 5.4 38 7.3 E 11 15 6 8 - - 0.0
28/04:00pm 20.8 17.7 5.6 37 7.6 E 11 20 6 11 - - 0.0
28/03:30pm 21.1 17.4 6.2 38 7.6 E 15 20 8 11 - - 0.0
28/03:00pm 22.1 18.7 5.9 35 8.3 E 13 22 7 12 - - 0.0
28/02:30pm 22.6 20.4 6.4 35 8.4 SE 7 15 4 8 - - 0.0
28/02:00pm 21.6 19.2 5.1 34 8.3 ESE 7 11 4 6 - - 0.0
28/01:30pm 22.4 20.1 5.8 34 8.5 ENE 7 13 4 7 - - 0.0
28/01:00pm 22.1 19.5 5.9 35 8.3 E 9 15 5 8 - - 0.0
28/12:30pm 21.6 19.0 5.9 36 8.0 E 9 20 5 11 - - 0.0
28/12:00pm 21.1 18.6 6.6 39 7.4 SE 9 15 5 8 - - 0.0
28/11:30am 20.8 19.0 7.1 41 7.1 ENE 6 11 3 6 - - 0.0
28/11:00am 19.9 18.4 7.0 43 6.6 NNE 4 9 2 5 - - 0.0
28/10:30am 19.4 17.4 7.2 45 6.3 N 7 9 4 5 - - 0.0
28/10:00am 20.1 18.2 7.5 44 6.5 NW 7 11 4 6 - - 0.0
28/09:30am 19.8 18.2 7.9 46 6.2 N 6 13 3 7 - - 0.0
28/09:00am 17.9 17.1 9.8 59 4.3 E 4 9 2 5 - - 0.0
28/08:30am 13.9 14.2 12.1 89 1.0 SSE 2 4 1 2 - - 0.0
28/08:00am 9.8 8.8 8.7 93 0.5 S 4 6 2 3 - - 0.0
28/07:30am 6.3 5.2 5.1 92 0.5 CALM 0 0 0 0 - - 0.0
28/07:00am 5.6 4.0 4.4 92 0.5 N 2 6 1 3 - - 0.0
28/06:30am 5.6 3.9 4.2 91 0.6 N 2 6 1 3 - - 0.0
28/06:00am 5.2 2.7 3.9 91 0.6 N 6 9 3 5 - - 0.0
28/05:30am 5.1 3.7 3.8 91 0.6 CALM 0 0 0 0 - - 0.0
28/05:00am 4.9 3.5 3.6 91 0.5 CALM 0 4 0 2 - - 0.0
28/04:30am 4.6 3.2 3.3 91 0.5 CALM 0 0 0 0 - - 0.0
28/04:00am 4.5 3.0 3.2 91 0.5 CALM 0 0 0 0 - - 0.0
28/03:30am 4.5 3.0 3.0 90 0.6 CALM 0 0 0 0 - - 0.0
28/03:00am 4.4 2.9 2.9 90 0.6 CALM 0 0 0 0 - - 0.0
28/02:30am 4.3 2.8 2.8 90 0.6 CALM 0 0 0 0 - - 0.0
28/02:00am 4.3 2.7 2.7 89 0.7 CALM 0 0 0 0 - - 0.0
28/01:30am 4.5 2.9 2.7 88 0.7 CALM 0 0 0 0 - - 0.0
28/01:00am 5.0 3.5 3.2 88 0.8 CALM 0 0 0 0 - - 0.0
28/12:30am 5.4 4.0 3.3 86 0.9 CALM 0 0 0 0 - - 0.0
28/12:00am 6.7 5.4 4.2 84 1.1 CALM 0 0 0 0 - - 0.0
 
Date/Time
WST
Temp
°C
App
Temp
°C
Dew
Point
°C
Rel
Hum
%
Delta-T
°C
Wind Press
QNH
hPa
Press
MSL
hPa
Rain since
9am
mm
Dir  Spd
km/h
Gust
km/h
Spd
kts
Gust
kts
27/11:30pm 6.9 5.7 4.4 84 1.1 CALM 0 0 0 0 - - 0.0
27/11:00pm 7.6 6.4 4.7 82 1.3 CALM 0 0 0 0 - - 0.0
27/10:30pm 8.6 7.6 5.4 80 1.5 CALM 0 0 0 0 - - 0.0
27/10:00pm 9.1 8.1 5.8 80 1.5 CALM 0 0 0 0 - - 0.0
27/09:30pm 9.7 8.8 6.1 78 1.7 CALM 0 0 0 0 - - 0.0
27/09:00pm 9.8 8.9 6.2 78 1.7 CALM 0 0 0 0 - - 0.0
27/08:30pm 9.6 7.9 6.1 79 1.6 N 4 4 2 2 - - 0.0
27/08:00pm 9.9 8.9 5.7 75 2.0 CALM 0 0 0 0 - - 0.0
27/07:30pm 11.3 10.5 6.6 73 2.3 CALM 0 0 0 0 - - 0.0
27/07:00pm 11.4 10.6 6.5 72 2.3 CALM 0 0 0 0 - - 0.0
27/06:30pm 12.7 12.1 7.2 69 2.7 CALM 0 0 0 0 - - 0.0
27/06:00pm 14.1 13.5 7.2 63 3.4 CALM 0 0 0 0 - - 0.0
27/05:30pm 15.9 15.4 7.7 58 4.2 CALM 0 0 0 0 - - 0.0
27/05:00pm 18.0 17.3 7.1 49 5.5 CALM 0 0 0 0 - - 0.0
27/04:30pm 19.6 18.0 6.4 42 6.7 N 4 6 2 3 - - 0.0
27/04:00pm 20.2 18.3 6.5 41 7.0 ENE 6 7 3 4 - - 0.0
27/03:30pm 20.2 18.1 5.8 39 7.2 NE 6 13 3 7 - - 0.0
27/03:00pm 21.6 18.5 5.5 35 8.1 ENE 11 19 6 10 - - 0.0
27/02:30pm 21.6 18.9 5.5 35 8.1 ENE 9 15 5 8 - - 0.0
27/02:00pm 21.1 18.9 6.2 38 7.6 N 7 13 4 7 - - 0.0
27/01:30pm 21.0 19.5 6.9 40 7.3 WNW 4 9 2 5 - - 0.0
27/01:00pm 20.5 18.6 6.8 41 7.0 N 6 13 3 7 - - 0.0
27/12:30pm 20.3 18.3 7.0 42 6.8 NW 7 15 4 8 - - 0.0
27/12:00pm 20.4 18.5 6.7 41 7.0 NNW 6 13 3 7 - - 0.0
27/11:30am 21.6 18.6 7.8 41 7.3 N 13 19 7 10 - - 0.0
27/11:00am 20.5 18.0 8.2 45 6.5 NNW 11 19 6 10 - - 0.0
27/10:30am 17.9 14.5 7.6 51 5.3 NNW 15 19 8 10 - - 0.0
27/10:00am 17.2 14.3 8.1 55 4.7 NNW 13 20 7 11 - - 0.0
27/09:30am 16.9 14.5 8.6 58 4.3 N 11 17 6 9 - - 0.0
27/09:00am 17.1 14.3 8.5 57 4.5 N 13 19 7 10 - - 0.0
27/08:30am 14.5 12.6 10.5 77 2.1 N 11 17 6 9 - - 0.0
27/08:00am 12.5 11.9 11.6 94 0.5 NNE 6 9 3 5 - - 0.0
27/07:30am 10.7 10.0 10.1 96 0.3 NE 4 6 2 3 - - 0.0
27/07:00am 6.5 5.2 5.8 95 0.3 ENE 2 4 1 2 - - 0.0
27/06:30am 5.7 4.5 4.7 93 0.4 CALM 0 0 0 0 - - 0.0
27/06:00am 8.0 6.6 7.1 94 0.4 NE 4 6 2 3 - - 0.0
27/05:30am 6.7 4.6 5.8 94 0.4 NE 6 6 3 3 - - 0.0
27/05:00am 7.9 5.9 7.0 94 0.4 NE 7 7 4 4 - - 0.0
27/04:30am 8.1 6.3 7.2 94 0.4 NE 6 6 3 3 - - 0.0
27/04:00am 8.1 6.3 7.0 93 0.5 NE 6 7 3 4 - - 0.0
27/03:30am 9.0 7.2 8.1 94 0.4 NE 7 11 4 6 - - 0.0
27/03:00am 8.1 6.3 7.0 93 0.5 NE 6 9 3 5 - - 0.0
27/02:30am 8.5 6.6 7.4 93 0.5 NE 7 9 4 5 - - 0.0
27/02:00am 8.0 6.1 6.9 93 0.5 NE 6 7 3 4 - - 0.0
27/01:30am 7.6 5.6 6.4 92 0.6 NE 6 6 3 3 - - 0.0
27/01:00am 8.3 6.5 7.1 92 0.6 NE 6 7 3 4 - - 0.0
27/12:30am 8.2 6.4 7.0 92 0.6 ENE 6 7 3 4 - - 0.0
27/12:00am 8.0 6.1 6.8 92 0.6 E 6 6 3 3 - - 0.0
 
Date/Time
WST
Temp
°C
App
Temp
°C
Dew
Point
°C
Rel
Hum
%
Delta-T
°C
Wind Press
QNH
hPa
Press
MSL
hPa
Rain since
9am
mm
Dir  Spd
km/h
Gust
km/h
Spd
kts
Gust
kts
26/11:30pm 7.2 5.5 5.8 91 0.6 ESE 4 4 2 2 - - 0.0
26/11:00pm 9.0 7.7 7.6 91 0.7 ESE 4 6 2 3 - - 0.0
26/10:30pm 8.9 7.5 7.4 90 0.7 ESE 4 6 2 3 - - 0.0
26/10:00pm 8.5 6.6 6.6 88 0.9 SE 6 7 3 4 - - 0.0
26/09:30pm 9.9 8.3 8.0 88 0.9 SSE 6 7 3 4 - - 0.0
26/09:00pm 10.5 9.0 8.3 86 1.1 ESE 6 6 3 3 - - 0.0
26/08:30pm 11.5 10.5 8.9 84 1.3 SE 4 6 2 3 - - 0.0
26/08:00pm 12.5 11.3 9.7 83 1.4 SE 6 9 3 5 - - 0.0
26/07:30pm 13.4 12.2 10.2 81 1.7 SE 7 11 4 6 - - 0.0
26/07:00pm 14.7 12.9 10.9 78 2.0 SSE 11 17 6 9 - - 0.0
26/06:30pm 15.2 13.7 10.6 74 2.5 SSE 9 15 5 8 - - 0.0
26/06:00pm 16.1 13.5 10.6 70 3.0 SSE 15 20 8 11 - - 0.0
26/05:30pm 15.8 13.8 6.3 53 4.7 SSE 6 7 3 4 - - 0.0
26/05:00pm 18.8 16.2 6.3 44 6.3 SSE 9 13 5 7 - - 0.0
26/04:30pm 20.4 18.4 6.4 40 7.1 SSE 6 9 3 5 - - 0.0
26/04:00pm 21.2 18.9 5.9 37 7.8 S 7 13 4 7 - - 0.0
26/03:30pm 21.5 19.2 5.8 36 8.0 S 7 13 4 7 - - 0.0
26/03:00pm 21.7 19.5 6.4 37 7.8 SE 7 11 4 6 - - 0.0
26/02:30pm 21.7 19.5 6.4 37 7.8 E 7 11 4 6 - - 0.0
26/02:00pm 20.6 18.7 6.5 40 7.2 SE 6 9 3 5 - - 0.0
26/01:30pm 22.1 20.0 6.7 37 8.0 SSE 7 13 4 7 - - 0.0
26/01:00pm 21.4 19.5 6.5 38 7.6 NW 6 9 3 5 - - 0.0
26/12:30pm 19.9 18.9 7.3 44 6.5 SSW 2 6 1 3 - - 0.0
26/12:00pm 19.1 17.8 7.8 48 5.9 S 4 6 2 3 - - 0.0
26/11:30am 18.8 17.6 7.9 49 5.6 WNW 4 7 2 4 - - 0.0
26/11:00am 19.4 18.4 8.7 50 5.7 NNE 4 9 2 5 - - 0.0
26/10:30am 18.9 17.4 9.1 53 5.2 NW 7 17 4 9 - - 0.0
26/10:00am 18.3 16.6 9.9 58 4.5 NW 9 15 5 8 - - 0.0
26/09:30am 17.3 15.8 10.7 65 3.6 NNW 9 13 5 7 - - 0.0
26/09:00am 15.3 13.0 10.5 73 2.6 NNW 13 17 7 9 - - 0.0
26/08:30am 13.7 12.4 12.4 92 0.7 NNW 11 15 6 8 - - 0.0
26/08:00am 11.6 10.2 10.8 95 0.4 NW 9 13 5 7 - - 0.0
26/07:30am 9.7 8.3 8.9 95 0.4 NW 6 7 3 4 - - 0.0
26/07:00am 7.3 5.4 6.6 95 0.3 NW 6 9 3 5 - - 0.0
26/06:30am 4.8 2.7 3.8 93 0.4 NW 4 6 2 3 - - 0.0
26/06:00am 5.5 3.2 4.6 94 0.4 NW 6 7 3 4 - - 0.0
26/05:30am 5.7 3.2 4.8 94 0.4 NW 7 9 4 5 - - 0.0
26/05:00am 5.4 2.9 4.5 94 0.4 NW 7 9 4 5 - - 0.0
26/04:30am 4.6 2.1 3.6 93 0.4 NW 6 7 3 4 - - 0.0
26/04:00am 4.3 1.5 3.3 93 0.4 NW 7 7 4 4 - - 0.0
26/03:30am 3.9 1.2 2.9 93 0.4 NW 6 7 3 4 - - 0.0
26/03:00am 4.4 1.6 3.4 93 0.4 NW 7 9 4 5 - - 0.0
26/02:30am 3.6 1.6 2.4 92 0.5 SSW 2 4 1 2 - - 0.0
26/02:00am 4.0 2.5 2.8 92 0.5 CALM 0 0 0 0 - - 0.0
26/01:30am 4.1 2.6 2.9 92 0.5 CALM 0 0 0 0 - - 0.0
26/01:00am 4.3 2.8 3.1 92 0.5 CALM 0 0 0 0 - - 0.0
26/12:30am 4.4 2.5 3.1 91 0.5 SSW 2 4 1 2 - - 0.0
26/12:00am 4.8 3.4 3.5 91 0.5 CALM 0 0 0 0 - - 0.0
 
Date/Time
WST
Temp
°C
App
Temp
°C
Dew
Point
°C
Rel
Hum
%
Delta-T
°C
Wind Press
QNH
hPa
Press
MSL
hPa
Rain since
9am
mm
Dir  Spd
km/h
Gust
km/h
Spd
kts
Gust
kts
25/11:30pm 5.3 4.0 4.0 91 0.6 CALM 0 4 0 2 - - 0.0
25/11:00pm 5.5 4.2 4.2 91 0.6 CALM 0 0 0 0 - - 0.0
25/10:30pm 5.7 4.4 4.2 90 0.6 CALM 0 0 0 0 - - 0.0
25/10:00pm 6.2 5.0 4.7 90 0.7 CALM 0 0 0 0 - - 0.0

Other Formats:

Comma delimited format used in spreadsheet applications
http://www.bom.gov.au/fwo/IDW60801/IDW60801.95639.axf

JavaScript Object Notation format (JSON) in row-major order
http://www.bom.gov.au/fwo/IDW60801/IDW60801.95639.json